world map with LEGA marked

LEGA - Airport

This information may not be accurate or current and is not valid for navigation or flight planning. No warranty of fitness for any purpose is made or implied.

flag of Andalusiaflag of Spain

Donate via PayPal

Additional information is available on the NEW Great Circle Mapper

Location
City:  Granada, Andalusia, Spain
Name:Armilla
ICAO:LEGA

Details
Type:Airport (Aerodrome, Airfield)
Latitude:37°08'00"N (37.133222)
Longitude:3°38'08"W (-3.635693)
Datum:WGS 1984
Elevation:2297 ft (700 m)
Runways:1
Longest:4265 × 98 ft (1300 × 30 m)

Time
Timezone:UTC+1 (DST+4)
Local Time:

Weather
METAR:LEGA  041400Z 29005KT CAVOK 13/M04 Q1026
TAF:LEGA  (expired)

Related Locations
Nearby:
Farthest:NZUN: 12419 mi / 19986 km
Pauanui Beach, WKO, NZ

Find:

   beyond  
but within

Other Information
Maps:
Sources:

  


 


Great Circle Mapper   Great Circle Mapper
Great Circle Mapper FAQ   Great Circle Mapper FAQ
  Karl's Home Page
KLSē   KLSē Home
   GC on Facebook
Airlines of the World   Airlines of the World
Donate via PayPal


Copyright © 2004-2019, Karl L. Swartz. All rights reserved.
All trademarks mentioned herein belong to their respective owners.

Please see credits for attribution and copyright information.

Karl Swartz <karl@kls2.com>
  Powered by FreeBSD
Valid HTML 4.01!
Labeled with ICRA
hCard Microformat
Geo Microformat